コペンハーゲン の空港の天気 - METARとTAF

コペンハーゲン国際空港 ( EKCH / CPH ) - デンマーク コペンハーゲン
飛行場実況気象(Metar)
観測時間02/28 01:20 CET (02/28 00:20 UTC)
風向・風速南南東 8m/s
視程10km以上
天気現象
なし
気温7℃
湿度76%
気圧987hPa
METAREKCH 280020Z 16016KT CAVOK 07/03 Q0987 NOSIG
過去の天気等 Google飛行場航空写真 Wunderground天気予報

過去48時間のMETAR

飛行場予報(TAF)
発表時間: 2/28 00:12 CET (2/27 23:12 UTC)
予報対象時間: 28日1時 CET ~ 1日1時 CET
風向・風速南 8m/s
視程10km以上
全天の8割程度の雲 雲底高度 760m
28日1時 CET ~ 28日6時 CET に一時的に
風向・風速南 9m/s 瞬間風速 14m/s
天気現象弱いしゅう雨
全天の4割程度の積乱雲 雲底高度 610m
28日6時 CET ~ 28日20時 CET に一時的に
天気現象弱いしゅう雨
全天の4割程度の積乱雲 雲底高度 610m
28日20時 CET ~ 1日1時 CET に一時的に
風向・風速南 9m/s 瞬間風速 14m/s
天気現象弱いしゅう雨
全天の4割程度の積乱雲 雲底高度 610m
TAF EKCH 272312Z 2800/2824 18015KT 9999 BKN025
TEMPO 2800/2805 18018G28KT -SHRA SCT020CB
TEMPO 2805/2819 -SHRA SCT020CB
TEMPO 2819/2824 18018G28KT -SHRA SCT020CB